createdAt,value
2023-09-10T00:00:34.582Z,1004.7
2023-09-10T00:01:58.718Z,1004.6
2023-09-10T00:03:23.832Z,1004.7
2023-09-10T00:04:49.934Z,1004.6
2023-09-10T00:06:13.969Z,1004.6
2023-09-10T00:07:39.175Z,1004.6
2023-09-10T00:09:03.218Z,1004.6
2023-09-10T00:10:28.447Z,1004.6
2023-09-10T00:11:52.442Z,1004.6
2023-09-10T00:13:16.567Z,1004.6
2023-09-10T00:14:40.652Z,1004.6
2023-09-10T00:16:05.908Z,1004.6
2023-09-10T00:17:29.880Z,1004.6
2023-09-10T00:18:55.023Z,1004.6
2023-09-10T00:20:20.091Z,1004.6
2023-09-10T00:21:40.349Z,1004.6
2023-09-10T00:23:04.472Z,1004.6
2023-09-10T00:24:30.525Z,1004.6
2023-09-10T00:25:57.713Z,1004.6
2023-09-10T00:27:06.767Z,1004.6
2023-09-10T00:28:31.462Z,1004.6
2023-09-10T00:29:55.527Z,1004.6
2023-09-10T00:31:19.733Z,1004.6
2023-09-10T00:32:43.815Z,1004.6
2023-09-10T00:34:07.883Z,1004.7
2023-09-10T00:35:33.104Z,1004.7
2023-09-10T00:36:57.093Z,1004.6
2023-09-10T00:38:21.255Z,1004.6
2023-09-10T00:39:45.275Z,1004.5
2023-09-10T00:40:57.933Z,1004.6
2023-09-10T00:42:21.980Z,1004.5
2023-09-10T00:43:27.480Z,1004.6
2023-09-10T00:44:54.928Z,1004.6
2023-09-10T00:46:04.257Z,1004.6
2023-09-10T00:47:32.704Z,1004.6
2023-09-10T00:48:57.830Z,1004.6
2023-09-10T00:50:03.411Z,1004.6
2023-09-10T00:51:30.764Z,1004.6
2023-09-10T00:52:54.906Z,1004.6
2023-09-10T00:54:21.021Z,1004.6
2023-09-10T00:55:45.143Z,1004.6
2023-09-10T00:57:10.256Z,1004.6
2023-09-10T00:58:34.377Z,1004.6
2023-09-10T00:59:59.473Z,1004.6
2023-09-10T01:01:27.615Z,1004.6
2023-09-10T01:02:51.763Z,1004.6
2023-09-10T01:04:15.850Z,1004.6
2023-09-10T01:05:39.876Z,1004.6
2023-09-10T01:07:03.984Z,1004.6
2023-09-10T01:08:28.073Z,1004.6
2023-09-10T01:09:52.249Z,1004.7
2023-09-10T01:11:16.291Z,1004.7
2023-09-10T01:12:40.455Z,1004.7
2023-09-10T01:14:04.567Z,1004.7
2023-09-10T01:15:21.144Z,1004.6
2023-09-10T01:16:46.057Z,1004.6
2023-09-10T01:18:10.159Z,1004.6
2023-09-10T01:19:34.340Z,1004.7
2023-09-10T01:20:58.341Z,1004.6
2023-09-10T01:22:22.442Z,1004.6
2023-09-10T01:23:42.703Z,1004.6
2023-09-10T01:25:08.829Z,1004.6
2023-09-10T01:26:33.070Z,1004.6
2023-09-10T01:27:58.114Z,1004.6
2023-09-10T01:29:23.140Z,1004.6
2023-09-10T01:30:48.354Z,1004.6
2023-09-10T01:32:12.373Z,1004.6
2023-09-10T01:33:17.950Z,1004.6
2023-09-10T01:34:44.388Z,1004.6
2023-09-10T01:36:08.468Z,1004.5
2023-09-10T01:37:33.571Z,1004.6
2023-09-10T01:38:58.655Z,1004.5
2023-09-10T01:40:22.767Z,1004.5
2023-09-10T01:41:47.916Z,1004.6
2023-09-10T01:43:11.963Z,1004.6
2023-09-10T01:44:37.084Z,1004.6
2023-09-10T01:46:01.232Z,1004.5
2023-09-10T01:47:26.377Z,1004.5
2023-09-10T01:48:50.380Z,1004.6
2023-09-10T01:50:15.605Z,1004.5
2023-09-10T01:51:39.595Z,1004.5
2023-09-10T01:53:04.718Z,1004.5
2023-09-10T01:54:28.819Z,1004.5
2023-09-10T01:55:52.977Z,1004.5
2023-09-10T01:57:17.049Z,1004.5
2023-09-10T01:58:42.371Z,1004.4
2023-09-10T02:00:06.353Z,1004.4
2023-09-10T02:01:31.424Z,1004.4
2023-09-10T02:02:55.777Z,1004.4
2023-09-10T02:04:20.649Z,1004.5
2023-09-10T02:05:25.993Z,1004.5
2023-09-10T02:06:52.652Z,1004.4
2023-09-10T02:08:17.655Z,1004.4
2023-09-10T02:09:41.726Z,1004.4
2023-09-10T02:10:47.094Z,1004.4
2023-09-10T02:12:12.696Z,1004.4
2023-09-10T02:13:37.272Z,1004.4
2023-09-10T02:15:02.009Z,1004.4
2023-09-10T02:16:26.063Z,1004.4
2023-09-10T02:17:50.208Z,1004.4
2023-09-10T02:19:14.231Z,1004.4
2023-09-10T02:20:38.397Z,1004.4
2023-09-10T02:22:02.839Z,1004.4
2023-09-10T02:23:27.544Z,1004.4
2023-09-10T02:24:51.765Z,1004.4
2023-09-10T02:26:15.910Z,1004.4
2023-09-10T02:27:39.885Z,1004.4
2023-09-10T02:29:04.028Z,1004.3
2023-09-10T02:30:28.129Z,1004.3
2023-09-10T02:31:52.274Z,1004.3
2023-09-10T02:33:16.399Z,1004.3
2023-09-10T02:34:40.419Z,1004.3
2023-09-10T02:35:56.937Z,1004.4
2023-09-10T02:37:20.880Z,1004.3
2023-09-10T02:38:44.997Z,1004.3
2023-09-10T02:40:09.117Z,1004.4
2023-09-10T02:41:33.229Z,1004.3
2023-09-10T02:42:57.363Z,1004.3
2023-09-10T02:44:21.468Z,1004.3
2023-09-10T02:45:45.554Z,1004.3
2023-09-10T02:47:09.716Z,1004.3
2023-09-10T02:48:33.778Z,1004.3
2023-09-10T02:49:58.891Z,1004.4
2023-09-10T02:51:04.189Z,1004.4
2023-09-10T02:52:30.824Z,1004.3
2023-09-10T02:53:36.195Z,1004.4
2023-09-10T02:55:03.812Z,1004.3
2023-09-10T02:56:30.891Z,1004.4
2023-09-10T02:57:57.037Z,1004.3
2023-09-10T02:59:21.251Z,1004.4
2023-09-10T03:00:45.251Z,1004.3
2023-09-10T03:02:11.395Z,1004.3
2023-09-10T03:03:35.513Z,1004.3
2023-09-10T03:04:51.896Z,1004.3
2023-09-10T03:06:16.033Z,1004.3
2023-09-10T03:07:40.114Z,1004.3
2023-09-10T03:09:04.175Z,1004.3
2023-09-10T03:10:28.257Z,1004.3
2023-09-10T03:11:48.528Z,1004.3
2023-09-10T03:13:13.636Z,1004.3
2023-09-10T03:14:22.303Z,1004.3
2023-09-10T03:15:46.495Z,1004.3
2023-09-10T03:17:10.546Z,1004.3
2023-09-10T03:18:32.814Z,1004.2
2023-09-10T03:19:56.962Z,1004.3
2023-09-10T03:21:17.139Z,1004.3
2023-09-10T03:22:41.226Z,1004.2
2023-09-10T03:24:05.367Z,1004.2
2023-09-10T03:25:29.465Z,1004.2
2023-09-10T03:26:53.851Z,1004.2
2023-09-10T03:28:17.707Z,1004.2
2023-09-10T03:29:41.759Z,1004.1
2023-09-10T03:30:54.371Z,1004.1
2023-09-10T03:31:55.456Z,1004.1
2023-09-10T03:33:00.255Z,1004.1
2023-09-10T03:34:01.209Z,1004.1
2023-09-10T03:35:02.184Z,1004.1
2023-09-10T03:36:11.091Z,1004.1
2023-09-10T03:37:23.472Z,1004.1
2023-09-10T03:38:40.033Z,1004.1
2023-09-10T03:39:52.403Z,1004.1
2023-09-10T03:40:53.389Z,1004.1
2023-09-10T03:41:54.416Z,1004.1
2023-09-10T03:42:55.400Z,1004.1
2023-09-10T03:43:56.420Z,1004.1
2023-09-10T03:44:57.492Z,1004.1
2023-09-10T03:45:58.397Z,1004
2023-09-10T03:46:59.460Z,1004
2023-09-10T03:48:00.397Z,1004
2023-09-10T03:49:01.370Z,1004
2023-09-10T03:50:02.473Z,1004
2023-09-10T03:51:03.382Z,1004
2023-09-10T03:52:04.607Z,1004
2023-09-10T03:53:05.429Z,1004
2023-09-10T03:54:06.370Z,1004
2023-09-10T03:55:07.434Z,1004
2023-09-10T03:56:08.442Z,1004
2023-09-10T03:57:09.388Z,1004
2023-09-10T03:58:10.363Z,1004
2023-09-10T03:59:11.427Z,1004
2023-09-10T04:00:12.425Z,1004
2023-09-10T04:01:13.441Z,1004
2023-09-10T04:02:14.405Z,1003.9
2023-09-10T04:03:15.564Z,1003.9
2023-09-10T04:04:16.393Z,1003.9
2023-09-10T04:05:17.409Z,1003.9
2023-09-10T04:06:18.387Z,1003.9
2023-09-10T04:07:19.385Z,1003.9
2023-09-10T04:08:20.618Z,1003.9
2023-09-10T04:09:21.385Z,1003.9
2023-09-10T04:10:22.406Z,1003.9
2023-09-10T04:11:23.406Z,1003.9
2023-09-10T04:12:24.407Z,1003.9
2023-09-10T04:13:25.390Z,1003.9
2023-09-10T04:14:26.383Z,1003.9
2023-09-10T04:15:27.419Z,1003.8
2023-09-10T04:16:28.420Z,1003.9
2023-09-10T04:17:29.487Z,1003.9
2023-09-10T04:18:30.410Z,1003.9
2023-09-10T04:19:31.406Z,1003.9
2023-09-10T04:20:32.377Z,1003.9
2023-09-10T04:21:33.398Z,1003.9
2023-09-10T04:22:34.388Z,1004
2023-09-10T04:23:35.387Z,1003.9
2023-09-10T04:24:36.395Z,1003.9
2023-09-10T04:25:37.492Z,1003.9
2023-09-10T04:26:38.387Z,1003.9
2023-09-10T04:27:39.407Z,1003.9
2023-09-10T04:28:40.556Z,1003.9
2023-09-10T04:29:41.383Z,1003.9
2023-09-10T04:30:42.426Z,1003.9
2023-09-10T04:31:43.480Z,1004
2023-09-10T04:32:44.457Z,1004
2023-09-10T04:33:45.398Z,1004
2023-09-10T04:34:46.408Z,1004
2023-09-10T04:35:47.400Z,1004
2023-09-10T04:36:50.075Z,1004
2023-09-10T04:37:49.418Z,1003.4
2023-09-10T04:38:50.404Z,1003.9
2023-09-10T04:39:51.400Z,1004
2023-09-10T04:40:52.478Z,1004
2023-09-10T04:41:53.437Z,1004
2023-09-10T04:42:54.438Z,1004.1
2023-09-10T04:43:55.391Z,1004.1
2023-09-10T04:44:56.392Z,1004.1
2023-09-10T04:45:57.430Z,1004.1
2023-09-10T04:46:58.425Z,1004.1
2023-09-10T04:47:59.440Z,1004.1
2023-09-10T04:49:00.419Z,1004.1
2023-09-10T04:50:01.488Z,1004.1
2023-09-10T04:51:02.387Z,1004.1
2023-09-10T04:52:03.463Z,1004.1
2023-09-10T04:53:04.526Z,1004.1
2023-09-10T04:54:05.403Z,1004.1
2023-09-10T04:55:06.406Z,1004.1
2023-09-10T04:56:07.437Z,1004.2
2023-09-10T04:57:08.434Z,1004.2
2023-09-10T04:58:09.433Z,1004.2
2023-09-10T04:59:10.448Z,1004.2
2023-09-10T05:00:11.455Z,1004.1
2023-09-10T05:01:12.439Z,1004.1
2023-09-10T05:02:13.554Z,1004.2
2023-09-10T05:03:14.491Z,1004.2
2023-09-10T05:04:15.439Z,1004.1
2023-09-10T05:05:16.425Z,1004.2
2023-09-10T05:06:17.409Z,1004.2
2023-09-10T05:07:18.460Z,1004.2
2023-09-10T05:08:19.472Z,1004.2
2023-09-10T05:09:20.684Z,1004.1
2023-09-10T05:10:21.431Z,1004.2
2023-09-10T05:11:22.444Z,1004.2
2023-09-10T05:12:23.408Z,1004.2
2023-09-10T05:13:24.415Z,1004.2
2023-09-10T05:14:25.480Z,1004.2
2023-09-10T05:15:26.436Z,1004.2
2023-09-10T05:16:27.469Z,1004.2
2023-09-10T05:17:28.499Z,1004.2
2023-09-10T05:18:29.426Z,1004.2
2023-09-10T05:19:30.433Z,1004.2
2023-09-10T05:20:31.416Z,1004.2
2023-09-10T05:21:32.438Z,1004.2
2023-09-10T05:22:33.438Z,1004.2
2023-09-10T05:23:34.416Z,1004.2
2023-09-10T05:24:35.461Z,1004.2
2023-09-10T05:25:36.427Z,1004.2
2023-09-10T05:26:37.425Z,1004.3
2023-09-10T05:27:38.436Z,1004.2
2023-09-10T05:28:39.677Z,1004.2
2023-09-10T05:29:40.440Z,1004.3
2023-09-10T05:30:41.437Z,1004.3
2023-09-10T05:31:42.589Z,1004.3
2023-09-10T05:32:43.579Z,1004.2
2023-09-10T05:33:44.423Z,1004.2
2023-09-10T05:34:45.432Z,1004.2
2023-09-10T05:35:46.429Z,1004.2
2023-09-10T05:36:47.427Z,1004.2
2023-09-10T05:37:48.466Z,1004.2
2023-09-10T05:38:49.420Z,1004.2
2023-09-10T05:39:50.465Z,1004.2
2023-09-10T05:40:51.454Z,1004.2
2023-09-10T05:41:52.439Z,1004.2
2023-09-10T05:42:53.436Z,1004.2
2023-09-10T05:43:54.457Z,1004.2
2023-09-10T05:44:55.469Z,1004.2
2023-09-10T05:45:56.436Z,1004.1
2023-09-10T05:46:57.492Z,1004.1
2023-09-10T05:47:58.507Z,1004.1
2023-09-10T05:48:59.450Z,1004.1
2023-09-10T05:50:00.564Z,1004.1
2023-09-10T05:51:01.437Z,1004.2
2023-09-10T05:52:10.191Z,1004.2
2023-09-10T05:53:26.585Z,1004.2
2023-09-10T05:54:52.785Z,1004.2
2023-09-10T05:56:13.057Z,1004.2
2023-09-10T05:57:39.068Z,1004.2
2023-09-10T05:59:05.181Z,1004.2
2023-09-10T06:00:14.161Z,1004.2
2023-09-10T06:01:40.048Z,1004.2
2023-09-10T06:03:00.292Z,1004.2
2023-09-10T06:04:16.750Z,1004.3
2023-09-10T06:05:21.610Z,1004.3
2023-09-10T06:06:30.216Z,1004.2
2023-09-10T06:07:53.537Z,1004.3
2023-09-10T06:09:06.029Z,1004.2
2023-09-10T06:10:18.603Z,1004.3
2023-09-10T06:11:45.700Z,1004.3
2023-09-10T06:13:05.951Z,1004.3
2023-09-10T06:14:15.673Z,1004.3
2023-09-10T06:15:28.268Z,1004.3
2023-09-10T06:16:36.937Z,1004.4
2023-09-10T06:17:45.592Z,1004.4
2023-09-10T06:18:54.370Z,1004.3
2023-09-10T06:20:00.616Z,1004.4
2023-09-10T06:21:04.001Z,1004.4
2023-09-10T06:22:08.863Z,1004.3
2023-09-10T06:23:21.465Z,1004.3
2023-09-10T06:24:34.075Z,1004.3
2023-09-10T06:25:38.818Z,1004.3
2023-09-10T06:26:51.403Z,1004.3
2023-09-10T06:28:07.820Z,1004.3
2023-09-10T06:29:20.388Z,1004.3
2023-09-10T06:30:32.930Z,1004.3
2023-09-10T06:31:49.363Z,1004.3
2023-09-10T06:33:09.827Z,1004.3
2023-09-10T06:34:35.692Z,1004.3
2023-09-10T06:35:52.054Z,1004.3
2023-09-10T06:37:09.033Z,1004.4
2023-09-10T06:38:30.162Z,1004.3
2023-09-10T06:39:55.888Z,1004.3
2023-09-10T06:41:19.989Z,1004.4
2023-09-10T06:42:40.240Z,1004.4
2023-09-10T06:44:04.482Z,1004.3
2023-09-10T06:45:31.864Z,1004.3
2023-09-10T06:46:57.596Z,1004.3
2023-09-10T06:48:17.791Z,1004.4
2023-09-10T06:49:43.536Z,1004.3
2023-09-10T06:51:09.014Z,1004.3
2023-09-10T06:52:35.167Z,1004.3
2023-09-10T06:54:00.275Z,1004.3
2023-09-10T06:55:26.342Z,1004.3
2023-09-10T06:56:53.404Z,1004.3
2023-09-10T06:58:18.648Z,1004.3
2023-09-10T06:59:27.247Z,1004.4
2023-09-10T07:00:53.418Z,1004.3
2023-09-10T07:02:19.496Z,1004.4
2023-09-10T07:03:28.831Z,1004.4
2023-09-10T07:04:45.878Z,1004.4
2023-09-10T07:06:10.731Z,1004.4
2023-09-10T07:07:34.785Z,1004.4
2023-09-10T07:08:58.885Z,1004.4
2023-09-10T07:10:23.012Z,1004.5
2023-09-10T07:11:47.186Z,1004.5
2023-09-10T07:13:11.273Z,1004.5
2023-09-10T07:14:35.341Z,1004.4
2023-09-10T07:15:59.465Z,1004.5
2023-09-10T07:17:23.554Z,1004.5
2023-09-10T07:18:47.638Z,1004.4
2023-09-10T07:20:11.812Z,1004.4
2023-09-10T07:21:35.956Z,1004.4
2023-09-10T07:22:59.977Z,1004.4
2023-09-10T07:24:26.064Z,1004.4
2023-09-10T07:25:50.209Z,1004.5
2023-09-10T07:27:02.698Z,1004.5
2023-09-10T07:28:23.020Z,1004.5
2023-09-10T07:29:27.952Z,1004.5
2023-09-10T07:30:51.939Z,1004.5
2023-09-10T07:32:17.061Z,1004.5
2023-09-10T07:33:41.147Z,1004.5
2023-09-10T07:35:05.264Z,1004.5
2023-09-10T07:36:29.389Z,1004.5
2023-09-10T07:37:53.537Z,1004.5
2023-09-10T07:39:17.573Z,1004.5
2023-09-10T07:40:41.867Z,1004.5
2023-09-10T07:41:54.385Z,1004.5
2023-09-10T07:43:04.365Z,1004.5
2023-09-10T07:44:28.320Z,1004.5
2023-09-10T07:45:52.381Z,1004.5
2023-09-10T07:47:18.449Z,1004.5
2023-09-10T07:48:35.267Z,1004.5
2023-09-10T07:49:52.441Z,1004.5
2023-09-10T07:51:17.346Z,1004.5
2023-09-10T07:52:41.447Z,1004.5
2023-09-10T07:54:07.566Z,1004.5
2023-09-10T07:55:32.657Z,1004.5
2023-09-10T07:56:57.946Z,1004.5
2023-09-10T07:58:21.999Z,1004.5
2023-09-10T07:59:42.162Z,1004.2
2023-09-10T08:00:43.125Z,1004.4
2023-09-10T08:01:51.817Z,1004.4
2023-09-10T08:03:12.164Z,1004.4
2023-09-10T08:04:17.020Z,1004.4
2023-09-10T08:05:42.068Z,1004.4
2023-09-10T08:07:07.196Z,1004.4
2023-09-10T08:08:23.708Z,1004.4
2023-09-10T08:09:47.842Z,1004.3
2023-09-10T08:11:11.900Z,1004.3
2023-09-10T08:12:35.937Z,1004.4
2023-09-10T08:14:00.062Z,1004.3
2023-09-10T08:15:24.131Z,1004.3
2023-09-10T08:16:48.278Z,1004.3
2023-09-10T08:18:12.627Z,1004.3
2023-09-10T08:19:36.489Z,1004.3
2023-09-10T08:20:56.936Z,1004.3
2023-09-10T08:22:21.207Z,1004.4
2023-09-10T08:23:26.826Z,1004.4
2023-09-10T08:24:32.023Z,1004.3
2023-09-10T08:25:56.701Z,1004.3
2023-09-10T08:27:09.317Z,1004.3
2023-09-10T08:28:21.734Z,1004.3
2023-09-10T08:29:34.729Z,1004.3
2023-09-10T08:30:59.392Z,1004.3
2023-09-10T08:32:23.572Z,1004.3
2023-09-10T08:33:32.202Z,1003.4
2023-09-10T08:34:33.191Z,1004.1
2023-09-10T08:35:34.146Z,1004.2
2023-09-10T08:36:39.033Z,1004.2
2023-09-10T08:37:53.655Z,1004.2
2023-09-10T08:38:58.476Z,1004.3
2023-09-10T08:40:11.085Z,1004.3
2023-09-10T08:41:15.842Z,1004.4
2023-09-10T08:42:36.164Z,1004.3
2023-09-10T08:43:44.809Z,1004.3
2023-09-10T08:44:45.773Z,1004.3
2023-09-10T08:46:09.081Z,1004.3
2023-09-10T08:47:33.231Z,1004.3
2023-09-10T08:48:49.602Z,1004.3
2023-09-10T08:50:13.743Z,1004.3
2023-09-10T08:51:26.200Z,1004.3
2023-09-10T08:52:35.166Z,1004.3
2023-09-10T08:53:47.493Z,1004.3
2023-09-10T08:55:11.638Z,1004.3
2023-09-10T08:56:34.830Z,1004.3
2023-09-10T08:57:57.083Z,1004.3
2023-09-10T08:59:09.773Z,1004.3
2023-09-10T09:00:27.058Z,1004.3
2023-09-10T09:01:56.226Z,1004.3
2023-09-10T09:03:23.471Z,1004.3
2023-09-10T09:04:47.494Z,1004.3
2023-09-10T09:06:11.503Z,1004.3
2023-09-10T09:07:32.784Z,1004.3
2023-09-10T09:08:38.072Z,1004.3
2023-09-10T09:09:42.449Z,1004.3
2023-09-10T09:10:47.379Z,1004.3
2023-09-10T09:12:03.744Z,1004.3
2023-09-10T09:13:20.097Z,1004.3
2023-09-10T09:14:36.598Z,1004.4
2023-09-10T09:16:02.627Z,1004.4
2023-09-10T09:17:19.065Z,1004.4
2023-09-10T09:18:35.510Z,1004.4
2023-09-10T09:19:51.891Z,1004.4
2023-09-10T09:21:09.261Z,1004.3
2023-09-10T09:22:21.811Z,1004.3
2023-09-10T09:23:47.936Z,1004.4
2023-09-10T09:25:04.405Z,1004.4
2023-09-10T09:26:23.868Z,1004.4
2023-09-10T09:27:28.535Z,1004.4
2023-09-10T09:28:51.995Z,1004.3
2023-09-10T09:30:15.928Z,1004.4
2023-09-10T09:31:41.350Z,1004.4
2023-09-10T09:32:53.908Z,1004.4
2023-09-10T09:34:06.440Z,1004.4
2023-09-10T09:35:30.612Z,1004.4
2023-09-10T09:36:55.618Z,1004.4
2023-09-10T09:38:15.914Z,1004.4
2023-09-10T09:39:32.576Z,1004.4
2023-09-10T09:40:59.583Z,1004.4
2023-09-10T09:42:03.264Z,1004.3
2023-09-10T09:43:17.113Z,1004.3
2023-09-10T09:44:29.264Z,1004.3
2023-09-10T09:45:43.196Z,1004.3
2023-09-10T09:46:53.005Z,1004.3
2023-09-10T09:47:53.894Z,1004.2
2023-09-10T09:48:54.953Z,1004.2
2023-09-10T09:49:59.871Z,1004.2
2023-09-10T09:51:20.190Z,1004.2
2023-09-10T09:52:21.204Z,1004.2
2023-09-10T09:53:22.156Z,1004.2
2023-09-10T09:54:23.150Z,1004.2
2023-09-10T09:55:29.000Z,1004.2
2023-09-10T09:56:41.615Z,1004.2
2023-09-10T09:57:56.180Z,1004.2
2023-09-10T09:59:01.045Z,1004.2
2023-09-10T10:00:09.799Z,1004.2
2023-09-10T10:01:18.494Z,1004.2
2023-09-10T10:02:27.255Z,1004.2
2023-09-10T10:03:43.641Z,1004.1
2023-09-10T10:04:48.479Z,1004.1
2023-09-10T10:05:49.325Z,1004.1
2023-09-10T10:06:50.313Z,1003.9
2023-09-10T10:07:52.655Z,1004.1
2023-09-10T10:09:00.059Z,1004.1
2023-09-10T10:10:01.127Z,1004.1
2023-09-10T10:11:02.092Z,1004.1
2023-09-10T10:12:10.745Z,1004.1
2023-09-10T10:13:11.788Z,1004.1
2023-09-10T10:14:12.858Z,1004.1
2023-09-10T10:15:13.759Z,1004.1
2023-09-10T10:16:14.816Z,1004.1
2023-09-10T10:17:15.896Z,1004.1
2023-09-10T10:18:20.714Z,1004.1
2023-09-10T10:19:21.595Z,1004
2023-09-10T10:20:22.796Z,1004
2023-09-10T10:21:23.605Z,1004
2023-09-10T10:22:24.657Z,1004
2023-09-10T10:23:52.728Z,1004
2023-09-10T10:25:12.999Z,1004.1
2023-09-10T10:26:31.636Z,1004.1
2023-09-10T10:27:47.849Z,1004
2023-09-10T10:28:56.476Z,1004
2023-09-10T10:29:57.480Z,1004
2023-09-10T10:31:06.227Z,1004
2023-09-10T10:32:18.775Z,1004
2023-09-10T10:33:31.359Z,1003.7
2023-09-10T10:34:32.306Z,1003.8
2023-09-10T10:35:33.317Z,1003.4
2023-09-10T10:36:42.169Z,1003.7
2023-09-10T10:38:02.296Z,1003.8
2023-09-10T10:39:13.022Z,1003.8
2023-09-10T10:40:14.134Z,1003.8
2023-09-10T10:41:22.769Z,1003.9
2023-09-10T10:42:31.474Z,1003.9
2023-09-10T10:43:40.257Z,1003.9
2023-09-10T10:44:44.960Z,1003.8
2023-09-10T10:45:45.916Z,1003.8
2023-09-10T10:46:46.896Z,1003.8
2023-09-10T10:47:51.812Z,1003.8
2023-09-10T10:49:04.513Z,1003.8
2023-09-10T10:50:17.193Z,1003.8
2023-09-10T10:51:49.915Z,1003.9
2023-09-10T10:52:56.725Z,1003.9
2023-09-10T10:54:05.515Z,1003.8
2023-09-10T10:55:14.116Z,1003.8
2023-09-10T10:56:34.425Z,1003.8
2023-09-10T10:57:47.517Z,1003.8
2023-09-10T10:59:04.388Z,1003.8
2023-09-10T11:00:13.251Z,1003.8
2023-09-10T11:01:33.329Z,1003.8
2023-09-10T11:02:49.746Z,1003.8
2023-09-10T11:04:09.964Z,1003.8
2023-09-10T11:05:14.878Z,1003.8
2023-09-10T11:06:19.658Z,1003.8
2023-09-10T11:07:33.237Z,1003.8
2023-09-10T11:08:38.114Z,1003.8
2023-09-10T11:09:54.607Z,1003.8
2023-09-10T11:11:11.953Z,1003.8
2023-09-10T11:12:32.162Z,1003.8
2023-09-10T11:13:39.936Z,1003.8
2023-09-10T11:15:04.154Z,1003.8
2023-09-10T11:16:28.668Z,1003.8
2023-09-10T11:17:41.855Z,1003.8
2023-09-10T11:18:54.364Z,1003.7
2023-09-10T11:20:20.913Z,1003.7
2023-09-10T11:21:35.855Z,1003.7
2023-09-10T11:22:56.157Z,1003.7
2023-09-10T11:24:08.663Z,1003.7
2023-09-10T11:25:17.324Z,1003.7
2023-09-10T11:26:22.265Z,1003.8
2023-09-10T11:27:35.809Z,1003.8
2023-09-10T11:28:59.959Z,1003.8
2023-09-10T11:30:24.007Z,1003.8
2023-09-10T11:31:40.712Z,1003.8
2023-09-10T11:32:56.974Z,1003.8
2023-09-10T11:34:20.080Z,1003.8
2023-09-10T11:35:40.329Z,1003.8
2023-09-10T11:37:04.607Z,1003.8
2023-09-10T11:38:20.881Z,1003.8
2023-09-10T11:39:45.981Z,1003.8
2023-09-10T11:40:51.119Z,1003.7
2023-09-10T11:42:12.114Z,1003.7
2023-09-10T11:43:28.433Z,1003.8
2023-09-10T11:44:33.441Z,1003.8
2023-09-10T11:45:38.145Z,1003.7
2023-09-10T11:46:47.049Z,1003.7
2023-09-10T11:48:01.635Z,1003.7
2023-09-10T11:49:06.411Z,1003.7
2023-09-10T11:50:15.047Z,1003.7
2023-09-10T11:51:19.901Z,1003.7
2023-09-10T11:52:37.211Z,1003.7
2023-09-10T11:53:43.211Z,1003.7
2023-09-10T11:54:59.629Z,1003.7
2023-09-10T11:56:16.109Z,1003.7
2023-09-10T11:57:28.706Z,1003.7
2023-09-10T11:58:33.459Z,1003.7
2023-09-10T11:59:58.574Z,1003.6
2023-09-10T12:01:11.121Z,1003.2
2023-09-10T12:02:19.970Z,1003.5
2023-09-10T12:03:36.324Z,1003.7
2023-09-10T12:04:52.624Z,1003.7
2023-09-10T12:06:16.791Z,1003.7
2023-09-10T12:07:33.098Z,1003.4
2023-09-10T12:08:53.383Z,1003.5
2023-09-10T12:10:13.986Z,1003.6
2023-09-10T12:11:26.501Z,1003.6
2023-09-10T12:12:35.023Z,1003.6
2023-09-10T12:13:36.436Z,1003.6
2023-09-10T12:14:41.918Z,1003.6
2023-09-10T12:15:59.422Z,1003.6
2023-09-10T12:17:23.450Z,1003.6
2023-09-10T12:18:48.547Z,1003.6
2023-09-10T12:20:13.714Z,1003.5
2023-09-10T12:21:22.314Z,1003.5
2023-09-10T12:22:27.164Z,1003.5
2023-09-10T12:23:40.069Z,1003.5
2023-09-10T12:24:48.473Z,1003.5
2023-09-10T12:25:53.309Z,1003.5
2023-09-10T12:27:01.995Z,1003.5
2023-09-10T12:28:22.279Z,1003.4
2023-09-10T12:29:42.621Z,1003.4
2023-09-10T12:30:51.601Z,1003.1
2023-09-10T12:32:04.035Z,1003.3
2023-09-10T12:33:20.354Z,1003.4
2023-09-10T12:34:31.041Z,1003.5
2023-09-10T12:35:59.152Z,1003.5
2023-09-10T12:37:13.730Z,1003.5
2023-09-10T12:38:26.322Z,1003.5
2023-09-10T12:39:42.617Z,1003.5
2023-09-10T12:41:04.929Z,1003.5
2023-09-10T12:42:21.338Z,1003.5
2023-09-10T12:43:34.096Z,1003.5
2023-09-10T12:44:40.133Z,1003.5
2023-09-10T12:46:00.163Z,1003.4
2023-09-10T12:47:17.931Z,1003.4
2023-09-10T12:48:44.280Z,1003.4
2023-09-10T12:50:08.836Z,1003.4
2023-09-10T12:51:31.004Z,1003.4
2023-09-10T12:52:55.448Z,1003.4
2023-09-10T12:54:19.206Z,1003.4
2023-09-10T12:55:39.615Z,1003.4
2023-09-10T12:56:51.995Z,1003.4
2023-09-10T12:58:14.266Z,1003.4
2023-09-10T12:59:35.573Z,1003.3
2023-09-10T13:00:55.889Z,1003.4
2023-09-10T13:02:04.799Z,1003.4
2023-09-10T13:03:05.665Z,1003.4
2023-09-10T13:04:14.357Z,1003.4
2023-09-10T13:05:19.150Z,1003.4
2023-09-10T13:06:41.297Z,1003.3
2023-09-10T13:07:49.994Z,1003.3
2023-09-10T13:08:54.873Z,1003.3
2023-09-10T13:09:55.844Z,1003.3
2023-09-10T13:11:10.460Z,1003.3
2023-09-10T13:12:19.080Z,1003.3
2023-09-10T13:13:23.928Z,1003.3
2023-09-10T13:14:38.614Z,1003.3
2023-09-10T13:15:47.239Z,1003.3
2023-09-10T13:17:11.599Z,1003.3
2023-09-10T13:18:18.270Z,1003.3
2023-09-10T13:19:42.308Z,1003.3
2023-09-10T13:21:06.471Z,1003.3
2023-09-10T13:22:26.863Z,1003.3
2023-09-10T13:23:47.976Z,1003.3
2023-09-10T13:25:02.473Z,1003.3
2023-09-10T13:26:28.666Z,1003.4
2023-09-10T13:27:44.962Z,1003.4
2023-09-10T13:28:55.186Z,1003.4
2023-09-10T13:30:18.013Z,1003.3
2023-09-10T13:31:41.351Z,1003.4
2023-09-10T13:32:46.173Z,1003.3
2023-09-10T13:34:02.566Z,1003.4
2023-09-10T13:35:18.938Z,1003.3
2023-09-10T13:36:27.636Z,1003.3
2023-09-10T13:37:51.990Z,1003.3
2023-09-10T13:39:15.795Z,1003.3
2023-09-10T13:40:34.096Z,1003.3
2023-09-10T13:41:55.476Z,1003.3
2023-09-10T13:43:00.338Z,1003.3
2023-09-10T13:44:12.970Z,1003.3
2023-09-10T13:45:35.156Z,1003.2
2023-09-10T13:46:59.283Z,1003.3
2023-09-10T13:48:23.401Z,1003.3
2023-09-10T13:49:48.543Z,1003.2
2023-09-10T13:51:13.618Z,1003.2
2023-09-10T13:52:38.668Z,1003.2
2023-09-10T13:54:03.792Z,1003.2
2023-09-10T13:55:20.192Z,1003.2
2023-09-10T13:56:25.644Z,1003.2
2023-09-10T13:57:50.228Z,1003.2
2023-09-10T13:59:03.006Z,1003.3
2023-09-10T14:00:23.553Z,1003.3
2023-09-10T14:01:40.545Z,1003.3
2023-09-10T14:03:04.513Z,1003.3
2023-09-10T14:04:25.088Z,1003.3
2023-09-10T14:05:37.632Z,1003.3
2023-09-10T14:07:03.490Z,1003.3
2023-09-10T14:08:30.537Z,1003.3
2023-09-10T14:09:50.848Z,1003.3
2023-09-10T14:11:17.955Z,1003.3
2023-09-10T14:12:43.352Z,1003.3
2023-09-10T14:14:09.100Z,1003.3
2023-09-10T14:15:33.226Z,1003.3
2023-09-10T14:16:58.413Z,1003.4
2023-09-10T14:18:23.517Z,1003.4
2023-09-10T14:19:32.486Z,1003.4
2023-09-10T14:20:43.540Z,1003.4
2023-09-10T14:22:09.018Z,1003.1
2023-09-10T14:23:34.158Z,1003.2
2023-09-10T14:24:42.021Z,1003.3
2023-09-10T14:26:08.024Z,1003.3
2023-09-10T14:27:16.783Z,1003.3
2023-09-10T14:28:43.967Z,1003.3
2023-09-10T14:29:48.739Z,1003.3
2023-09-10T14:31:15.825Z,1003.3
2023-09-10T14:32:40.976Z,1003.3
2023-09-10T14:34:07.058Z,1003.2
2023-09-10T14:35:12.154Z,1003.2
2023-09-10T14:36:37.027Z,1003.2
2023-09-10T14:38:02.257Z,1003.3
2023-09-10T14:39:18.513Z,1003.2
2023-09-10T14:40:44.575Z,1003.2
2023-09-10T14:42:09.669Z,1003.3
2023-09-10T14:43:18.449Z,1003.3
2023-09-10T14:44:42.561Z,1003.3
2023-09-10T14:46:07.670Z,1003.3
2023-09-10T14:47:25.059Z,1003.2
2023-09-10T14:48:49.129Z,1003.2
2023-09-10T14:50:05.565Z,1003.2
2023-09-10T14:51:25.995Z,1003.2
2023-09-10T14:52:49.943Z,1003.2
2023-09-10T14:54:10.191Z,1003.2
2023-09-10T14:55:37.265Z,1003.2
2023-09-10T14:57:01.379Z,1003.2
2023-09-10T14:58:25.510Z,1003.3
2023-09-10T14:59:51.630Z,1003.2
2023-09-10T15:00:56.406Z,1003.2
2023-09-10T15:02:25.747Z,1003.2
2023-09-10T15:03:34.549Z,1003.2
2023-09-10T15:04:58.439Z,1003.2
2023-09-10T15:06:10.959Z,1003.2
2023-09-10T15:07:35.023Z,1003.2
2023-09-10T15:08:59.153Z,1003.1
2023-09-10T15:10:24.350Z,1003.1
2023-09-10T15:11:49.502Z,1003.1
2023-09-10T15:13:16.488Z,1003.1
2023-09-10T15:14:29.599Z,1003.1
2023-09-10T15:15:47.108Z,1003.1
2023-09-10T15:17:11.627Z,1003.1
2023-09-10T15:18:38.638Z,1003.1
2023-09-10T15:19:52.762Z,1003.1
2023-09-10T15:21:05.793Z,1003.1
2023-09-10T15:22:18.356Z,1003.1
2023-09-10T15:23:44.500Z,1003
2023-09-10T15:25:04.848Z,1003.1
2023-09-10T15:26:17.435Z,1003
2023-09-10T15:27:30.019Z,1003
2023-09-10T15:28:50.707Z,1003
2023-09-10T15:30:07.628Z,1003
2023-09-10T15:31:27.342Z,1003
2023-09-10T15:32:52.200Z,1003
2023-09-10T15:34:16.358Z,1003
2023-09-10T15:35:40.332Z,1003
2023-09-10T15:37:04.440Z,1003.1
2023-09-10T15:38:28.529Z,1003.1